Santa, ID (83866)

8:13 AM PST on February 12, 2016 (GMT -0800)
ranch land , mountains | | Change Station
CLOSE
Current Station
Personal Weather Station
Location: Fernwood, ID
Elevation: 2835 ft
Nearby Weather Stations

Elev 2835 ft 47.14 °N, 116.40 °W | Updated 34 seconds ago

Overcast
Overcast
37.4 °F
Feels Like 37 °F
N
0.0
Wind Variable Wind from ESE
Gusts 0.0 mph

Today
High -- | Low -- °F
--% Chance of Precip.
Yesterday
High -- | Low -- °F
Precip. -- in
Pressure 30.17 in
Visibility 0.2 miles
Clouds Scattered Clouds 200 ft
Mostly Cloudy 1200 ft
Overcast 4300 ft
Windchill 37 °F
Dew Point 32 °F
Humidity 82%
Rainfall 0.00 in
Snow Depth Not available.
6:56 AM 5:04 PM
Waxing Crescent, 21% visible
SPECI KMLP 121601Z AUTO 20006KT 1/4SM FG SCT002 BKN012 OVC043 02/01 A3017 RMK AO2 T00170011 $
Pressure 30.17 in
Visibility 0.2 miles
Clouds Scattered Clouds 200 ft
Mostly Cloudy 1200 ft
Overcast 4300 ft
Windchill 37 °F
Dew Point 32 °F
Humidity 82%
Rainfall 0.00 in
Snow Depth Not available.
6:56 AM 5:04 PM
Waxing Crescent, 21% visible
SPECI KMLP 121601Z AUTO 20006KT 1/4SM FG SCT002 BKN012 OVC043 02/01 A3017 RMK AO2 T00170011 $

10-Day Weather Forecast

Almanac

Astronomy

Feb. 12, 2016 Rise Set
Actual Time
Civil Twilight
Nautical Twilight
Astronomical Twilight
Moon
Length of Visible Light
Length of Day
Tomorrow will be .
, % of the Moon is Illuminated

Today's Extremes

State Highs State Lows

Community

WunderPhotos

Upload Photos

1,892,345 photos uploaded!

WunderBlog® & News

Nearby

Air Quality

  Air Quality AQ Index Pollutant
Not available.

Snow Depth

Station Depth Elevation

Earthquake Activity

City Distance Mag. Time & Date
Minimum magnitude displayed is 2.5.

Coastal Water Temperatures

Place Temperature

Stations

Nearby Weather Stations

Station Location Temp. Windchill Dew Point Humidity Wind Precip. Elev Updated Type
                   

Watches & Warnings

There are currently no watches in effect.